createdAt,value
2019-02-26T00:01:50.493Z,103089.27
2019-02-26T00:04:21.076Z,103089.93
2019-02-26T00:06:51.821Z,103088.15
2019-02-26T00:09:24.953Z,103089.32
2019-02-26T00:11:54.758Z,103082.90
2019-02-26T00:14:27.030Z,103080.75
2019-02-26T00:16:56.541Z,103075.90
2019-02-26T00:19:26.843Z,103072.85
2019-02-26T00:21:57.017Z,103071.70
2019-02-26T00:24:46.541Z,103073.64
2019-02-26T00:27:16.742Z,103075.58
2019-02-26T00:29:48.674Z,103068.64
2019-02-26T00:32:18.599Z,103073.72
2019-02-26T00:34:48.623Z,103065.96
2019-02-26T00:37:20.069Z,103072.75
2019-02-26T00:39:51.847Z,103071.71
2019-02-26T00:42:24.268Z,103075.30
2019-02-26T00:44:55.935Z,103074.63
2019-02-26T00:47:25.555Z,103077.88
2019-02-26T00:49:55.597Z,103078.55
2019-02-26T00:52:25.577Z,103081.11
2019-02-26T00:54:57.596Z,103087.52
2019-02-26T00:57:29.193Z,103078.77
2019-02-26T01:00:00.726Z,103088.02
2019-02-26T01:02:30.757Z,103080.91
2019-02-26T01:05:00.803Z,103073.25
2019-02-26T01:07:30.895Z,103068.56
2019-02-26T01:10:02.399Z,103063.86
2019-02-26T01:12:33.080Z,103056.66
2019-02-26T01:15:06.752Z,103051.41
2019-02-26T01:17:38.363Z,103059.05
2019-02-26T01:20:10.863Z,103060.75
2019-02-26T01:22:42.835Z,103054.58
2019-02-26T01:25:15.222Z,103059.94
2019-02-26T01:27:47.802Z,103062.53
2019-02-26T01:30:20.677Z,103054.64
2019-02-26T01:32:48.523Z,103060.63
2019-02-26T01:35:18.645Z,103059.25
2019-02-26T01:37:49.347Z,103057.96
2019-02-26T01:40:21.778Z,103063.42
2019-02-26T01:42:55.155Z,103058.30
2019-02-26T01:45:27.323Z,103061.88
2019-02-26T01:47:56.184Z,103065.56
2019-02-26T01:50:27.990Z,103059.73
2019-02-26T01:52:59.156Z,103058.27
2019-02-26T01:55:29.707Z,103057.52
2019-02-26T01:57:59.763Z,103061.65
2019-02-26T02:00:29.938Z,103056.16
2019-02-26T02:03:00.019Z,103052.00
2019-02-26T02:05:31.383Z,103049.77
2019-02-26T02:08:01.907Z,103050.47
2019-02-26T02:10:31.897Z,103049.48
2019-02-26T02:13:02.847Z,103046.77
2019-02-26T02:15:35.571Z,103038.58
2019-02-26T02:18:06.201Z,103044.12
2019-02-26T02:20:36.225Z,103039.84
2019-02-26T02:23:07.090Z,103038.02
2019-02-26T02:25:38.748Z,103034.10
2019-02-26T02:28:08.929Z,103039.06
2019-02-26T02:30:39.210Z,103041.31
2019-02-26T02:33:09.260Z,103047.95
2019-02-26T02:35:39.265Z,103049.76
2019-02-26T02:38:09.328Z,103048.22
2019-02-26T02:40:40.208Z,103051.70
2019-02-26T02:43:13.204Z,103043.53
2019-02-26T02:45:42.769Z,103047.18
2019-02-26T02:48:14.183Z,103049.63
2019-02-26T02:50:44.356Z,103047.95
2019-02-26T02:53:14.465Z,103046.55
2019-02-26T02:55:47.026Z,103050.88
2019-02-26T02:58:18.332Z,103056.75
2019-02-26T03:00:49.337Z,103060.44
2019-02-26T03:03:21.433Z,103070.17
2019-02-26T03:05:51.435Z,103062.15
2019-02-26T03:08:22.362Z,103059.70
2019-02-26T03:10:52.694Z,103053.02
2019-02-26T03:13:24.889Z,103038.70
2019-02-26T03:15:56.689Z,103040.81
2019-02-26T03:18:26.164Z,103044.03
2019-02-26T03:20:56.715Z,103039.42
2019-02-26T03:23:27.892Z,103041.57
2019-02-26T03:25:57.897Z,103044.88
2019-02-26T03:28:27.995Z,103039.69
2019-02-26T03:30:58.017Z,103039.34
2019-02-26T03:33:28.082Z,103028.98
2019-02-26T03:35:58.073Z,103022.13
2019-02-26T03:38:28.884Z,103021.92
2019-02-26T03:41:01.156Z,103034.30
2019-02-26T03:43:31.434Z,103030.05
2019-02-26T03:46:02.569Z,103030.61
2019-02-26T03:48:32.572Z,103031.56
2019-02-26T03:51:02.612Z,103033.65
2019-02-26T03:53:34.286Z,103039.09
2019-02-26T03:56:08.153Z,103041.86
2019-02-26T03:58:36.274Z,103042.44
2019-02-26T04:01:08.396Z,103040.39
2019-02-26T04:03:39.518Z,103038.93
2019-02-26T04:06:12.211Z,103053.58
2019-02-26T04:08:42.767Z,103045.69
2019-02-26T04:11:16.552Z,103062.03
2019-02-26T04:13:45.881Z,103060.22
2019-02-26T04:16:16.813Z,103057.78
2019-02-26T04:18:51.033Z,103058.16
2019-02-26T04:21:20.923Z,103066.86
2019-02-26T04:23:51.406Z,103075.47
2019-02-26T04:27:06.926Z,103068.81
2019-02-26T04:29:55.776Z,103066.44
2019-02-26T04:33:20.757Z,103062.22
2019-02-26T04:36:23.811Z,103056.29
2019-02-26T04:39:10.850Z,103059.48
2019-02-26T04:41:53.958Z,103058.53
2019-02-26T04:45:16.025Z,103053.63
2019-02-26T04:47:48.656Z,103048.91
2019-02-26T04:50:17.800Z,103054.27
2019-02-26T04:52:47.881Z,103050.15
2019-02-26T04:55:17.870Z,103056.45
2019-02-26T04:57:50.602Z,103057.98
2019-02-26T05:00:19.709Z,103053.83
2019-02-26T05:02:49.810Z,103065.01
2019-02-26T05:05:22.432Z,103054.64
2019-02-26T05:07:51.723Z,103052.03
2019-02-26T05:10:24.283Z,103031.20
2019-02-26T05:12:57.134Z,103037.47
2019-02-26T05:15:26.242Z,103040.98
2019-02-26T05:17:56.887Z,103039.47
2019-02-26T05:20:26.864Z,103041.44
2019-02-26T05:23:00.046Z,103044.31
2019-02-26T05:25:28.657Z,103051.09
2019-02-26T05:27:58.789Z,103053.87
2019-02-26T05:30:28.881Z,103048.83
2019-02-26T05:33:00.818Z,103050.58
2019-02-26T05:35:33.508Z,103051.61
2019-02-26T05:38:06.825Z,103042.78
2019-02-26T05:40:37.432Z,103043.97
2019-02-26T05:43:07.107Z,103045.22
2019-02-26T05:45:37.189Z,103035.33
2019-02-26T05:48:07.250Z,103040.08
2019-02-26T05:50:38.666Z,103045.91
2019-02-26T05:53:11.267Z,103037.34
2019-02-26T05:55:42.239Z,103033.87
2019-02-26T05:58:15.651Z,103037.63
2019-02-26T06:00:44.689Z,103032.55
2019-02-26T06:03:16.280Z,103034.41
2019-02-26T06:05:48.966Z,103029.57
2019-02-26T06:08:18.225Z,103030.87
2019-02-26T06:10:48.760Z,103033.09
2019-02-26T06:13:18.834Z,103032.64
2019-02-26T06:15:51.431Z,103033.00
2019-02-26T06:18:21.034Z,103033.48
2019-02-26T06:20:53.431Z,103029.45
2019-02-26T06:23:23.195Z,103032.11
2019-02-26T06:25:55.995Z,103032.68
2019-02-26T06:28:26.361Z,103022.16
2019-02-26T06:31:00.913Z,103017.11
2019-02-26T06:33:34.118Z,103010.77
2019-02-26T06:36:04.698Z,103010.63
2019-02-26T06:38:35.049Z,103008.29
2019-02-26T06:41:05.273Z,103004.06
2019-02-26T06:43:37.551Z,103012.53
2019-02-26T06:46:09.338Z,103001.81
2019-02-26T06:48:38.830Z,103002.27
2019-02-26T06:51:08.871Z,103003.47
2019-02-26T06:53:38.908Z,103008.94
2019-02-26T06:56:09.036Z,103008.15
2019-02-26T06:58:41.123Z,103020.63
2019-02-26T07:01:12.018Z,103020.52
2019-02-26T07:03:42.485Z,103025.55
2019-02-26T07:06:12.648Z,103030.94
2019-02-26T07:08:44.496Z,103029.31
2019-02-26T07:11:14.517Z,103038.83
2019-02-26T07:13:46.411Z,103026.32
2019-02-26T07:16:18.081Z,103028.42
2019-02-26T07:18:47.973Z,103026.87
2019-02-26T07:21:17.997Z,103027.22
2019-02-26T07:23:48.011Z,103031.33
2019-02-26T07:26:18.902Z,103026.58
2019-02-26T07:28:51.070Z,103021.91
2019-02-26T07:31:21.327Z,103031.77
2019-02-26T07:33:53.212Z,103036.52
2019-02-26T07:36:23.690Z,103047.55
2019-02-26T07:38:56.534Z,103046.25
2019-02-26T07:41:29.832Z,103042.56
2019-02-26T07:43:59.971Z,103038.53
2019-02-26T07:46:30.160Z,103041.97
2019-02-26T07:49:02.633Z,103043.59
2019-02-26T07:51:33.840Z,103038.27
2019-02-26T07:54:03.737Z,103038.56
2019-02-26T07:56:33.786Z,103032.77
2019-02-26T07:59:06.741Z,103029.13
2019-02-26T08:01:37.491Z,103034.47
2019-02-26T08:04:09.351Z,103035.58
2019-02-26T08:06:39.042Z,103047.80
2019-02-26T08:09:12.158Z,103038.00
2019-02-26T08:11:43.826Z,103032.78
2019-02-26T08:14:15.779Z,103021.80
2019-02-26T08:16:49.224Z,103030.13
2019-02-26T08:19:17.143Z,103034.39
2019-02-26T08:21:47.913Z,103037.59
2019-02-26T08:24:20.334Z,103030.87
2019-02-26T08:26:50.621Z,103027.36
2019-02-26T08:29:20.630Z,103019.27
2019-02-26T08:31:52.124Z,103018.05
2019-02-26T08:34:22.410Z,103019.50
2019-02-26T08:36:52.509Z,103012.84
2019-02-26T08:39:22.517Z,103013.27
2019-02-26T08:42:09.650Z,103014.77
2019-02-26T08:44:39.664Z,103016.36
2019-02-26T08:47:13.472Z,103007.95
2019-02-26T08:49:43.450Z,103004.20
2019-02-26T08:52:16.829Z,103001.09
2019-02-26T08:54:45.009Z,103007.13
2019-02-26T08:57:15.049Z,103002.81
2019-02-26T08:59:47.162Z,103003.61
2019-02-26T09:02:17.201Z,103010.09
2019-02-26T09:04:47.799Z,103016.79
2019-02-26T09:07:19.567Z,103014.99
2019-02-26T09:09:50.690Z,103023.50
2019-02-26T09:12:27.109Z,103019.61
2019-02-26T09:14:56.986Z,103011.13
2019-02-26T09:17:29.909Z,103008.98
2019-02-26T09:20:08.423Z,103009.02
2019-02-26T09:22:30.873Z,103003.19
2019-02-26T09:25:02.201Z,103004.09
2019-02-26T09:27:35.113Z,103007.64
2019-02-26T09:30:05.829Z,103021.73
2019-02-26T09:32:39.293Z,103027.28
2019-02-26T09:35:10.135Z,103029.01
2019-02-26T09:37:40.272Z,103022.55
2019-02-26T09:40:12.000Z,103021.48
2019-02-26T09:42:43.753Z,103020.70
2019-02-26T09:45:17.733Z,103018.28
2019-02-26T09:47:49.609Z,103022.59
2019-02-26T09:50:20.738Z,103028.92
2019-02-26T09:52:53.456Z,103024.95
2019-02-26T09:55:22.952Z,103021.94
2019-02-26T09:57:53.028Z,103020.25
2019-02-26T10:00:27.217Z,103026.99
2019-02-26T10:02:55.711Z,103025.28
2019-02-26T10:05:25.804Z,103021.65
2019-02-26T10:07:58.027Z,103023.63
2019-02-26T10:10:30.829Z,103017.09
2019-02-26T10:13:02.128Z,103016.50
2019-02-26T10:15:32.347Z,103010.48
2019-02-26T10:18:06.201Z,103014.16
2019-02-26T10:20:35.062Z,103010.70
2019-02-26T10:23:06.337Z,103013.42
2019-02-26T10:25:38.599Z,103012.55
2019-02-26T10:28:11.166Z,103011.75
2019-02-26T10:30:41.710Z,103010.73
2019-02-26T10:33:12.020Z,103011.91
2019-02-26T10:35:45.065Z,103022.96
2019-02-26T10:38:13.980Z,103018.09
2019-02-26T10:40:53.476Z,103022.29
2019-02-26T10:43:15.860Z,103020.59
2019-02-26T10:45:47.449Z,103017.94
2019-02-26T10:48:19.768Z,103017.06
2019-02-26T10:50:51.759Z,103024.94
2019-02-26T10:53:22.641Z,103021.08
2019-02-26T10:55:52.840Z,103015.12
2019-02-26T10:58:22.958Z,103015.79
2019-02-26T11:00:55.586Z,103026.59
2019-02-26T11:03:25.839Z,103021.19
2019-02-26T11:05:55.885Z,103023.64
2019-02-26T11:08:28.943Z,103025.77
2019-02-26T11:10:57.772Z,103034.69
2019-02-26T11:13:27.806Z,103043.42
2019-02-26T11:15:59.911Z,103038.17
2019-02-26T11:18:29.778Z,103033.94
2019-02-26T11:20:59.798Z,103035.31
2019-02-26T11:23:31.151Z,103040.98
2019-02-26T11:26:01.645Z,103037.98
2019-02-26T11:28:33.259Z,103036.81
2019-02-26T11:31:03.527Z,103032.05
2019-02-26T11:33:33.668Z,103027.25
2019-02-26T11:36:05.539Z,103027.16
2019-02-26T11:38:39.069Z,103026.45
2019-02-26T11:41:07.347Z,103017.84
2019-02-26T11:43:37.456Z,103024.61
2019-02-26T11:46:08.743Z,103028.88
2019-02-26T11:48:38.905Z,103027.25
2019-02-26T11:51:08.919Z,103030.56
2019-02-26T11:53:39.044Z,103033.91
2019-02-26T11:56:09.170Z,103033.25
2019-02-26T11:58:39.247Z,103026.08
2019-02-26T12:01:12.120Z,103027.95
2019-02-26T12:03:43.857Z,103027.06
2019-02-26T12:06:14.136Z,103025.41
2019-02-26T12:08:44.973Z,103026.87
2019-02-26T12:11:17.812Z,103028.08
2019-02-26T12:13:50.085Z,103014.02
2019-02-26T12:16:19.701Z,103021.54
2019-02-26T12:18:49.849Z,103022.14
2019-02-26T12:21:19.944Z,103013.72
2019-02-26T12:23:49.991Z,103014.58
2019-02-26T12:26:22.186Z,103020.20
2019-02-26T12:28:52.825Z,103007.44
2019-02-26T12:31:25.310Z,103003.26
2019-02-26T12:33:55.802Z,103005.20
2019-02-26T12:36:26.630Z,102999.87
2019-02-26T12:39:00.001Z,102990.14
2019-02-26T12:41:29.529Z,102985.90
2019-02-26T12:44:05.662Z,102985.81
2019-02-26T12:46:33.935Z,102985.13
2019-02-26T12:49:05.718Z,102982.53
2019-02-26T12:51:35.875Z,102980.80
2019-02-26T12:54:07.036Z,102984.77
2019-02-26T12:56:37.805Z,102980.48
2019-02-26T12:59:07.891Z,102970.02
2019-02-26T13:01:39.758Z,102965.87
2019-02-26T13:04:12.973Z,102961.86
2019-02-26T13:06:45.260Z,102950.91
2019-02-26T13:09:13.213Z,102947.11
2019-02-26T13:12:00.457Z,102944.29
2019-02-26T13:14:15.036Z,102938.02
2019-02-26T13:16:46.289Z,102932.66
2019-02-26T13:19:21.419Z,102927.89
2019-02-26T13:21:48.673Z,102922.08
2019-02-26T13:24:21.522Z,102910.18
2019-02-26T13:26:51.675Z,102909.36
2019-02-26T13:29:22.403Z,102916.72
2019-02-26T13:34:24.289Z,102911.19
2019-02-26T13:36:56.783Z,102911.17
2019-02-26T13:39:29.849Z,102903.98
2019-02-26T13:42:03.680Z,102902.71
2019-02-26T13:44:29.879Z,102905.20
2019-02-26T13:47:00.128Z,102903.20
2019-02-26T13:49:30.229Z,102904.23
2019-02-26T13:52:00.445Z,102903.80
2019-02-26T13:54:30.541Z,102903.09
2019-02-26T13:57:00.780Z,102902.77
2019-02-26T13:59:30.925Z,102902.72
2019-02-26T14:02:02.329Z,102898.45
2019-02-26T14:04:32.444Z,102895.56
2019-02-26T14:07:02.507Z,102901.09
2019-02-26T14:09:32.633Z,102899.50
2019-02-26T14:12:02.782Z,102902.42
2019-02-26T14:14:33.055Z,102902.92
2019-02-26T14:17:03.202Z,102890.89
2019-02-26T14:19:33.284Z,102890.41
2019-02-26T14:22:03.438Z,102881.70
2019-02-26T14:24:33.522Z,102874.36
2019-02-26T14:27:03.560Z,102873.68
2019-02-26T14:29:33.611Z,102867.50
2019-02-26T14:32:03.667Z,102878.59
2019-02-26T14:34:33.702Z,102866.02
2019-02-26T14:37:03.923Z,102859.39
2019-02-26T14:39:34.010Z,102851.64
2019-02-26T14:42:04.145Z,102844.09
2019-02-26T14:44:34.231Z,102843.65
2019-02-26T14:47:04.533Z,102838.88
2019-02-26T14:49:34.653Z,102830.87
2019-02-26T14:52:04.685Z,102829.74
2019-02-26T14:54:34.712Z,102831.97
2019-02-26T14:57:04.783Z,102831.97
2019-02-26T14:59:34.890Z,102832.12
2019-02-26T15:02:05.029Z,102830.63
2019-02-26T15:04:35.133Z,102833.72
2019-02-26T15:07:05.203Z,102822.26
2019-02-26T15:09:35.326Z,102812.58
2019-02-26T15:12:05.429Z,102812.58
2019-02-26T15:14:35.540Z,102817.96
2019-02-26T15:17:06.293Z,102821.78
2019-02-26T15:19:36.417Z,102820.31
2019-02-26T15:22:06.433Z,102820.31
2019-02-26T15:24:36.554Z,102815.68
2019-02-26T15:27:06.672Z,102823.92
2019-02-26T15:29:36.807Z,102770.13
2019-02-26T15:32:07.014Z,102810.69
2019-02-26T15:34:37.142Z,102810.69
2019-02-26T15:37:07.252Z,102814.15
2019-02-26T15:39:37.322Z,102817.92
2019-02-26T15:42:07.418Z,102823.49
2019-02-26T15:44:37.533Z,102816.57
2019-02-26T15:47:09.212Z,102826.34
2019-02-26T15:49:39.490Z,102826.19
2019-02-26T15:52:09.513Z,102826.19
2019-02-26T15:54:39.571Z,102826.83
2019-02-26T15:57:09.593Z,102831.75
2019-02-26T15:59:39.641Z,102824.00
2019-02-26T16:02:09.656Z,102832.16
2019-02-26T16:04:39.830Z,102832.16
2019-02-26T16:07:09.929Z,102831.89
2019-02-26T16:09:40.010Z,102838.26
2019-02-26T16:12:10.052Z,102845.61
2019-02-26T16:14:40.110Z,102845.61
2019-02-26T16:17:10.321Z,102851.17
2019-02-26T16:19:40.350Z,102845.34
2019-02-26T16:22:10.381Z,102845.69
2019-02-26T16:24:40.618Z,102844.41
2019-02-26T16:27:10.672Z,102849.37
2019-02-26T16:29:40.739Z,102850.78
2019-02-26T16:32:10.821Z,102858.56
2019-02-26T16:34:40.869Z,102862.57
2019-02-26T16:37:11.001Z,102871.20
2019-02-26T16:39:41.111Z,102872.73
2019-02-26T16:42:11.764Z,102872.30
2019-02-26T16:44:42.395Z,102875.72
2019-02-26T16:47:12.617Z,102870.86
2019-02-26T16:49:44.203Z,102872.26
2019-02-26T16:52:14.265Z,102873.23
2019-02-26T16:54:44.395Z,102878.47
2019-02-26T16:57:14.479Z,102880.13
2019-02-26T16:59:44.547Z,102873.27
2019-02-26T17:02:15.483Z,102875.80
2019-02-26T17:04:45.497Z,102876.04
2019-02-26T17:07:15.629Z,102883.39
2019-02-26T17:09:45.688Z,102882.89
2019-02-26T17:12:15.863Z,102879.33
2019-02-26T17:14:46.083Z,102885.89
2019-02-26T17:17:16.191Z,102878.38
2019-02-26T17:19:48.368Z,102875.83
2019-02-26T17:22:20.321Z,102872.29
2019-02-26T17:24:53.395Z,102883.05
2019-02-26T17:27:22.273Z,102880.06
2019-02-26T17:29:52.466Z,102889.88
2019-02-26T17:32:22.785Z,102891.98
2019-02-26T17:34:53.802Z,102894.86
2019-02-26T17:37:24.615Z,102887.23
2019-02-26T17:39:54.703Z,102899.52
2019-02-26T17:42:24.849Z,102890.70
2019-02-26T17:44:55.084Z,102884.55
2019-02-26T17:47:25.469Z,102893.30
2019-02-26T17:49:55.644Z,102892.80
2019-02-26T17:52:25.873Z,102884.09
2019-02-26T17:54:55.941Z,102886.56
2019-02-26T17:57:26.181Z,102880.79
2019-02-26T17:59:56.307Z,102892.25
2019-02-26T18:02:27.498Z,102887.55
2019-02-26T18:04:58.508Z,102887.39
2019-02-26T18:07:30.037Z,102885.81
2019-02-26T18:10:00.217Z,102886.07
2019-02-26T18:12:30.375Z,102879.88
2019-02-26T18:15:00.552Z,102879.31
2019-02-26T18:17:30.655Z,102878.56
2019-02-26T18:20:00.812Z,102880.34
2019-02-26T18:22:30.888Z,102881.69
2019-02-26T18:25:01.742Z,102878.94
2019-02-26T18:27:31.821Z,102876.25
2019-02-26T18:30:02.329Z,102876.39
2019-02-26T18:32:32.399Z,102873.52
2019-02-26T18:35:02.501Z,102876.55
2019-02-26T18:37:33.001Z,102884.93
2019-02-26T18:40:03.215Z,102881.23
2019-02-26T18:42:33.267Z,102887.24
2019-02-26T18:45:03.383Z,102889.48
2019-02-26T18:47:33.480Z,102890.36
2019-02-26T18:50:03.554Z,102880.88
2019-02-26T18:52:33.595Z,102883.31
2019-02-26T18:55:03.784Z,102887.19
2019-02-26T18:57:33.894Z,102885.80
2019-02-26T19:00:05.636Z,102885.45
2019-02-26T19:02:36.000Z,102878.44
2019-02-26T19:05:06.959Z,102873.09
2019-02-26T19:07:37.188Z,102872.30
2019-02-26T19:10:09.201Z,102875.62
2019-02-26T19:12:39.309Z,102866.94
2019-02-26T19:15:12.576Z,102859.69
2019-02-26T19:17:44.553Z,102858.59
2019-02-26T19:20:15.565Z,102862.80
2019-02-26T19:22:45.776Z,102865.16
2019-02-26T19:25:15.842Z,102859.38
2019-02-26T19:27:45.940Z,102854.52
2019-02-26T19:30:17.203Z,102850.45
2019-02-26T19:32:47.786Z,102857.42
2019-02-26T19:35:18.415Z,102861.92
2019-02-26T19:37:49.978Z,102862.55
2019-02-26T19:40:21.740Z,102866.25
2019-02-26T19:42:52.917Z,102862.58
2019-02-26T19:45:26.465Z,102861.29
2019-02-26T19:47:56.601Z,102854.06
2019-02-26T19:50:26.713Z,102843.36
2019-02-26T19:52:57.459Z,102846.75
2019-02-26T19:55:31.128Z,102838.88
2019-02-26T19:58:03.979Z,102841.94
2019-02-26T20:00:33.014Z,102842.09
2019-02-26T20:03:05.511Z,102842.95
2019-02-26T20:05:34.828Z,102845.95
2019-02-26T20:08:06.100Z,102844.16
2019-02-26T20:10:36.234Z,102837.80
2019-02-26T20:13:12.321Z,102845.14
2019-02-26T20:15:38.011Z,102842.46
2019-02-26T20:18:08.070Z,102832.64
2019-02-26T20:20:40.946Z,102843.14
2019-02-26T20:23:09.863Z,102835.96
2019-02-26T20:25:42.465Z,102839.47
2019-02-26T20:28:11.682Z,102835.46
2019-02-26T20:30:41.717Z,102836.31
2019-02-26T20:33:11.795Z,102841.30
2019-02-26T20:35:45.116Z,102838.96
2019-02-26T20:38:13.587Z,102828.61
2019-02-26T20:40:43.625Z,102827.29
2019-02-26T20:43:13.743Z,102823.25
2019-02-26T20:45:43.779Z,102826.09
2019-02-26T20:48:14.252Z,102833.48
2019-02-26T20:50:44.297Z,102828.77
2019-02-26T20:53:14.386Z,102829.27
2019-02-26T20:55:52.217Z,102830.27
2019-02-26T20:58:16.238Z,102830.23
2019-02-26T21:00:48.227Z,102831.27
2019-02-26T21:03:18.094Z,102830.11
2019-02-26T21:05:48.198Z,102838.23
2019-02-26T21:08:18.305Z,102836.23
2019-02-26T21:10:48.731Z,102835.57
2019-02-26T21:13:18.904Z,102843.06
2019-02-26T21:15:48.924Z,102841.25
2019-02-26T21:18:18.986Z,102831.62
2019-02-26T21:20:49.348Z,102825.74
2019-02-26T21:23:19.536Z,102824.42
2019-02-26T21:25:49.518Z,102823.92
2019-02-26T21:28:19.548Z,102821.42
2019-02-26T21:30:49.675Z,102823.73
2019-02-26T21:33:19.857Z,102819.91
2019-02-26T21:35:51.925Z,102816.41
2019-02-26T21:38:21.740Z,102809.51
2019-02-26T21:40:52.134Z,102808.30
2019-02-26T21:43:22.387Z,102804.14
2019-02-26T21:45:52.445Z,102801.21
2019-02-26T21:48:22.550Z,102795.23
2019-02-26T21:50:54.513Z,102796.20
2019-02-26T21:53:24.343Z,102804.53
2019-02-26T21:55:55.644Z,102807.30
2019-02-26T21:58:26.817Z,102798.94
2019-02-26T22:00:57.431Z,102797.06
2019-02-26T22:03:27.451Z,102801.76
2019-02-26T22:06:05.072Z,102797.20
2019-02-26T22:08:29.267Z,102791.92
2019-02-26T22:10:59.402Z,102796.69
2019-02-26T22:13:29.885Z,102788.32
2019-02-26T22:16:00.062Z,102780.71
2019-02-26T22:18:34.064Z,102783.14
2019-02-26T22:21:02.314Z,102779.30
2019-02-26T22:23:34.306Z,102782.08
2019-02-26T22:26:04.141Z,102778.86
2019-02-26T22:28:34.226Z,102779.48
2019-02-26T22:31:04.239Z,102784.23
2019-02-26T22:33:34.334Z,102781.56
2019-02-26T22:36:04.390Z,102786.16
2019-02-26T22:38:34.415Z,102779.01
2019-02-26T22:41:04.854Z,102784.48
2019-02-26T22:43:34.972Z,102779.30
2019-02-26T22:46:05.092Z,102772.31
2019-02-26T22:48:35.166Z,102773.78
2019-02-26T22:51:05.269Z,102772.33
2019-02-26T22:53:36.655Z,102777.27
2019-02-26T22:56:07.274Z,102775.16
2019-02-26T22:58:37.480Z,102767.38
2019-02-26T23:01:30.513Z,102770.80
2019-02-26T23:03:59.622Z,102764.47
2019-02-26T23:06:31.701Z,102762.36
2019-02-26T23:09:01.878Z,102769.34
2019-02-26T23:11:32.682Z,102767.48
2019-02-26T23:14:04.972Z,102762.39
2019-02-26T23:16:35.892Z,102761.27
2019-02-26T23:19:05.961Z,102759.58
2019-02-26T23:21:36.927Z,102762.83
2019-02-26T23:24:07.390Z,102766.07
2019-02-26T23:26:41.889Z,102763.73
2019-02-26T23:29:09.701Z,102767.11
2019-02-26T23:31:39.783Z,102763.94
2019-02-26T23:34:09.895Z,102763.41
2019-02-26T23:36:39.993Z,102761.83
2019-02-26T23:39:13.589Z,102767.17
2019-02-26T23:41:44.986Z,102767.22
2019-02-26T23:44:17.829Z,102758.93
2019-02-26T23:46:47.277Z,102763.75
2019-02-26T23:49:17.361Z,102763.22
2019-02-26T23:51:47.841Z,102754.18
2019-02-26T23:54:17.925Z,102757.28
2019-02-26T23:56:49.839Z,102756.71
2019-02-26T23:59:19.765Z,102759.55
